sensor_id;sensor_type;location;lat;lon;timestamp;temperature;humidity
21582;DHT22;10952;50.836;4.348;2023-06-14T00:01:24;24.20;65.00
21582;DHT22;10952;50.836;4.348;2023-06-14T00:03:50;24.20;65.10
21582;DHT22;10952;50.836;4.348;2023-06-14T00:06:16;24.10;65.10
21582;DHT22;10952;50.836;4.348;2023-06-14T00:08:42;24.10;65.30
21582;DHT22;10952;50.836;4.348;2023-06-14T00:11:08;24.10;65.30
21582;DHT22;10952;50.836;4.348;2023-06-14T00:13:34;24.20;65.20
21582;DHT22;10952;50.836;4.348;2023-06-14T00:16:00;24.20;65.20
21582;DHT22;10952;50.836;4.348;2023-06-14T00:18:25;24.00;65.40
21582;DHT22;10952;50.836;4.348;2023-06-14T00:20:55;24.00;65.40
21582;DHT22;10952;50.836;4.348;2023-06-14T00:23:21;24.20;65.40
21582;DHT22;10952;50.836;4.348;2023-06-14T00:25:46;24.10;65.50
21582;DHT22;10952;50.836;4.348;2023-06-14T00:28:12;24.00;65.70
21582;DHT22;10952;50.836;4.348;2023-06-14T00:30:38;23.90;65.80
21582;DHT22;10952;50.836;4.348;2023-06-14T00:33:04;23.90;66.10
21582;DHT22;10952;50.836;4.348;2023-06-14T00:35:29;23.80;66.20
21582;DHT22;10952;50.836;4.348;2023-06-14T00:37:55;23.80;66.40
21582;DHT22;10952;50.836;4.348;2023-06-14T00:40:21;23.70;66.60
21582;DHT22;10952;50.836;4.348;2023-06-14T00:42:47;23.70;66.80
21582;DHT22;10952;50.836;4.348;2023-06-14T00:45:13;23.70;66.70
21582;DHT22;10952;50.836;4.348;2023-06-14T00:47:40;23.60;66.70
21582;DHT22;10952;50.836;4.348;2023-06-14T00:50:07;23.60;66.60
21582;DHT22;10952;50.836;4.348;2023-06-14T00:52:33;23.60;67.00
21582;DHT22;10952;50.836;4.348;2023-06-14T00:55:00;23.50;67.00
21582;DHT22;10952;50.836;4.348;2023-06-14T00:57:26;23.50;67.10
21582;DHT22;10952;50.836;4.348;2023-06-14T00:59:52;23.50;67.30
21582;DHT22;10952;50.836;4.348;2023-06-14T01:02:18;23.40;67.50
21582;DHT22;10952;50.836;4.348;2023-06-14T01:04:47;23.40;67.60
21582;DHT22;10952;50.836;4.348;2023-06-14T01:10:06;23.40;67.70
21582;DHT22;10952;50.836;4.348;2023-06-14T01:12:48;23.30;67.70
21582;DHT22;10952;50.836;4.348;2023-06-14T01:15:16;23.30;68.10
21582;DHT22;10952;50.836;4.348;2023-06-14T01:17:43;23.20;68.10
21582;DHT22;10952;50.836;4.348;2023-06-14T01:20:12;23.20;68.00
21582;DHT22;10952;50.836;4.348;2023-06-14T01:22:55;23.20;68.20
21582;DHT22;10952;50.836;4.348;2023-06-14T01:25:22;23.10;68.30
21582;DHT22;10952;50.836;4.348;2023-06-14T01:28:02;23.10;69.20
21582;DHT22;10952;50.836;4.348;2023-06-14T01:30:29;23.10;68.50
21582;DHT22;10952;50.836;4.348;2023-06-14T01:32:57;23.00;68.70
21582;DHT22;10952;50.836;4.348;2023-06-14T01:35:23;23.00;69.10
21582;DHT22;10952;50.836;4.348;2023-06-14T01:37:50;23.00;69.00
21582;DHT22;10952;50.836;4.348;2023-06-14T01:40:18;23.00;69.30
21582;DHT22;10952;50.836;4.348;2023-06-14T01:42:46;23.00;69.40
21582;DHT22;10952;50.836;4.348;2023-06-14T01:45:14;23.00;69.40
21582;DHT22;10952;50.836;4.348;2023-06-14T01:47:40;22.80;69.90
21582;DHT22;10952;50.836;4.348;2023-06-14T01:50:06;22.80;70.10
21582;DHT22;10952;50.836;4.348;2023-06-14T01:52:32;22.70;70.20
21582;DHT22;10952;50.836;4.348;2023-06-14T01:54:58;22.80;70.30
21582;DHT22;10952;50.836;4.348;2023-06-14T01:57:25;22.70;70.50
21582;DHT22;10952;50.836;4.348;2023-06-14T01:59:52;22.50;70.80
21582;DHT22;10952;50.836;4.348;2023-06-14T02:02:18;22.40;71.30
21582;DHT22;10952;50.836;4.348;2023-06-14T02:04:43;22.50;71.30
21582;DHT22;10952;50.836;4.348;2023-06-14T02:07:09;22.40;71.70
21582;DHT22;10952;50.836;4.348;2023-06-14T02:09:35;22.30;72.00
21582;DHT22;10952;50.836;4.348;2023-06-14T02:12:01;22.30;72.20
21582;DHT22;10952;50.836;4.348;2023-06-14T02:14:27;22.20;72.50
21582;DHT22;10952;50.836;4.348;2023-06-14T02:16:53;22.30;72.40
21582;DHT22;10952;50.836;4.348;2023-06-14T02:19:19;22.20;72.20
21582;DHT22;10952;50.836;4.348;2023-06-14T02:21:46;22.30;72.40
21582;DHT22;10952;50.836;4.348;2023-06-14T02:24:12;22.20;72.40
21582;DHT22;10952;50.836;4.348;2023-06-14T02:26:37;22.20;72.20
21582;DHT22;10952;50.836;4.348;2023-06-14T02:29:04;22.20;72.50
21582;DHT22;10952;50.836;4.348;2023-06-14T02:31:31;22.10;72.60
21582;DHT22;10952;50.836;4.348;2023-06-14T02:33:57;22.00;72.90
21582;DHT22;10952;50.836;4.348;2023-06-14T02:36:23;22.00;73.00
21582;DHT22;10952;50.836;4.348;2023-06-14T02:38:48;21.90;73.20
21582;DHT22;10952;50.836;4.348;2023-06-14T02:41:14;21.90;73.60
21582;DHT22;10952;50.836;4.348;2023-06-14T02:43:40;21.80;73.70
21582;DHT22;10952;50.836;4.348;2023-06-14T02:46:05;21.90;73.60
21582;DHT22;10952;50.836;4.348;2023-06-14T02:48:32;21.90;73.60
21582;DHT22;10952;50.836;4.348;2023-06-14T02:50:58;21.90;73.60
21582;DHT22;10952;50.836;4.348;2023-06-14T02:53:23;21.90;73.80
21582;DHT22;10952;50.836;4.348;2023-06-14T02:55:49;21.80;74.00
21582;DHT22;10952;50.836;4.348;2023-06-14T02:58:14;21.80;73.90
21582;DHT22;10952;50.836;4.348;2023-06-14T03:00:42;21.90;73.80
21582;DHT22;10952;50.836;4.348;2023-06-14T03:03:07;21.90;73.80
21582;DHT22;10952;50.836;4.348;2023-06-14T03:05:47;21.80;74.20
21582;DHT22;10952;50.836;4.348;2023-06-14T03:08:15;21.60;75.40
21582;DHT22;10952;50.836;4.348;2023-06-14T03:10:51;21.40;75.10
21582;DHT22;10952;50.836;4.348;2023-06-14T03:13:16;21.30;75.60
21582;DHT22;10952;50.836;4.348;2023-06-14T03:15:42;21.30;75.60
21582;DHT22;10952;50.836;4.348;2023-06-14T03:18:10;21.20;75.80
21582;DHT22;10952;50.836;4.348;2023-06-14T03:20:37;21.20;76.20
21582;DHT22;10952;50.836;4.348;2023-06-14T03:23:03;21.10;76.60
21582;DHT22;10952;50.836;4.348;2023-06-14T03:25:31;21.30;76.40
21582;DHT22;10952;50.836;4.348;2023-06-14T03:27:57;21.20;76.40
21582;DHT22;10952;50.836;4.348;2023-06-14T03:30:22;21.10;76.70
21582;DHT22;10952;50.836;4.348;2023-06-14T03:32:48;21.10;77.00
21582;DHT22;10952;50.836;4.348;2023-06-14T03:35:14;21.20;77.00
21582;DHT22;10952;50.836;4.348;2023-06-14T03:37:44;21.20;76.90
21582;DHT22;10952;50.836;4.348;2023-06-14T03:40:11;21.20;76.80
21582;DHT22;10952;50.836;4.348;2023-06-14T03:42:36;21.20;76.80
21582;DHT22;10952;50.836;4.348;2023-06-14T03:45:02;21.20;76.80
21582;DHT22;10952;50.836;4.348;2023-06-14T03:47:28;21.10;77.00
21582;DHT22;10952;50.836;4.348;2023-06-14T03:49:53;21.10;77.30
21582;DHT22;10952;50.836;4.348;2023-06-14T03:52:19;21.00;77.30
21582;DHT22;10952;50.836;4.348;2023-06-14T03:54:46;21.00;77.40
21582;DHT22;10952;50.836;4.348;2023-06-14T03:57:12;21.00;77.30
21582;DHT22;10952;50.836;4.348;2023-06-14T03:59:37;20.90;77.60
21582;DHT22;10952;50.836;4.348;2023-06-14T04:02:03;21.00;77.60
21582;DHT22;10952;50.836;4.348;2023-06-14T04:04:29;20.90;77.70
21582;DHT22;10952;50.836;4.348;2023-06-14T04:06:57;21.00;77.90
21582;DHT22;10952;50.836;4.348;2023-06-14T04:09:24;21.00;77.80
21582;DHT22;10952;50.836;4.348;2023-06-14T04:11:51;21.00;77.50
21582;DHT22;10952;50.836;4.348;2023-06-14T04:14:21;21.00;77.70
21582;DHT22;10952;50.836;4.348;2023-06-14T04:16:48;20.90;77.90
21582;DHT22;10952;50.836;4.348;2023-06-14T04:19:14;20.90;77.70
21582;DHT22;10952;50.836;4.348;2023-06-14T04:21:40;20.90;77.70
21582;DHT22;10952;50.836;4.348;2023-06-14T04:24:06;20.90;78.00
21582;DHT22;10952;50.836;4.348;2023-06-14T04:26:32;20.80;78.00
21582;DHT22;10952;50.836;4.348;2023-06-14T04:28:59;20.80;78.30
21582;DHT22;10952;50.836;4.348;2023-06-14T04:31:31;20.90;77.90
21582;DHT22;10952;50.836;4.348;2023-06-14T04:33:59;20.80;78.20
21582;DHT22;10952;50.836;4.348;2023-06-14T04:36:25;20.70;78.40
21582;DHT22;10952;50.836;4.348;2023-06-14T04:38:53;20.70;78.80
21582;DHT22;10952;50.836;4.348;2023-06-14T04:41:21;20.80;78.60
21582;DHT22;10952;50.836;4.348;2023-06-14T04:43:48;20.80;78.30
21582;DHT22;10952;50.836;4.348;2023-06-14T04:46:15;20.80;78.40
21582;DHT22;10952;50.836;4.348;2023-06-14T04:48:41;20.80;78.60
21582;DHT22;10952;50.836;4.348;2023-06-14T04:51:08;20.90;78.60
21582;DHT22;10952;50.836;4.348;2023-06-14T04:53:35;20.80;78.50
21582;DHT22;10952;50.836;4.348;2023-06-14T04:56:01;20.90;78.30
21582;DHT22;10952;50.836;4.348;2023-06-14T04:58:27;20.80;78.80
21582;DHT22;10952;50.836;4.348;2023-06-14T05:00:55;20.80;78.80
21582;DHT22;10952;50.836;4.348;2023-06-14T05:03:22;20.80;79.00
21582;DHT22;10952;50.836;4.348;2023-06-14T05:05:49;20.80;78.90
21582;DHT22;10952;50.836;4.348;2023-06-14T05:08:16;20.80;78.80
21582;DHT22;10952;50.836;4.348;2023-06-14T05:10:41;20.80;78.90
21582;DHT22;10952;50.836;4.348;2023-06-14T05:13:07;20.80;78.80
21582;DHT22;10952;50.836;4.348;2023-06-14T05:15:33;20.90;78.60
21582;DHT22;10952;50.836;4.348;2023-06-14T05:17:59;20.90;78.80
21582;DHT22;10952;50.836;4.348;2023-06-14T05:20:25;20.90;79.00
21582;DHT22;10952;50.836;4.348;2023-06-14T05:22:53;21.00;79.00
21582;DHT22;10952;50.836;4.348;2023-06-14T05:25:22;21.20;78.20
21582;DHT22;10952;50.836;4.348;2023-06-14T05:27:48;21.20;79.20
21582;DHT22;10952;50.836;4.348;2023-06-14T05:30:15;21.20;78.60
21582;DHT22;10952;50.836;4.348;2023-06-14T05:32:41;21.40;79.10
21582;DHT22;10952;50.836;4.348;2023-06-14T05:35:07;21.50;77.70
21582;DHT22;10952;50.836;4.348;2023-06-14T05:37:33;21.50;77.40
21582;DHT22;10952;50.836;4.348;2023-06-14T05:39:59;21.50;76.90
21582;DHT22;10952;50.836;4.348;2023-06-14T05:42:24;21.60;76.80
21582;DHT22;10952;50.836;4.348;2023-06-14T05:44:50;21.80;76.60
21582;DHT22;10952;50.836;4.348;2023-06-14T05:47:16;21.70;76.40
21582;DHT22;10952;50.836;4.348;2023-06-14T05:49:41;21.60;76.60
21582;DHT22;10952;50.836;4.348;2023-06-14T05:52:08;21.50;77.00
21582;DHT22;10952;50.836;4.348;2023-06-14T05:54:33;21.50;76.90
21582;DHT22;10952;50.836;4.348;2023-06-14T05:56:59;21.60;76.70
21582;DHT22;10952;50.836;4.348;2023-06-14T05:59:27;21.60;76.40
21582;DHT22;10952;50.836;4.348;2023-06-14T06:01:53;21.70;76.40
21582;DHT22;10952;50.836;4.348;2023-06-14T06:04:18;21.70;76.50
21582;DHT22;10952;50.836;4.348;2023-06-14T06:06:45;21.80;76.30
21582;DHT22;10952;50.836;4.348;2023-06-14T06:09:10;21.80;76.30
21582;DHT22;10952;50.836;4.348;2023-06-14T06:11:36;21.90;76.90
21582;DHT22;10952;50.836;4.348;2023-06-14T06:14:01;22.10;76.50
21582;DHT22;10952;50.836;4.348;2023-06-14T06:16:27;22.20;75.40
21582;DHT22;10952;50.836;4.348;2023-06-14T06:18:53;22.30;74.90
21582;DHT22;10952;50.836;4.348;2023-06-14T06:21:18;22.30;75.10
21582;DHT22;10952;50.836;4.348;2023-06-14T06:23:44;22.30;75.10
21582;DHT22;10952;50.836;4.348;2023-06-14T06:26:10;22.30;75.00
21582;DHT22;10952;50.836;4.348;2023-06-14T06:28:35;22.30;75.00
21582;DHT22;10952;50.836;4.348;2023-06-14T06:31:01;22.40;75.10
21582;DHT22;10952;50.836;4.348;2023-06-14T06:33:26;22.40;75.20
21582;DHT22;10952;50.836;4.348;2023-06-14T06:35:52;22.50;75.40
21582;DHT22;10952;50.836;4.348;2023-06-14T06:38:18;22.50;75.20
21582;DHT22;10952;50.836;4.348;2023-06-14T06:40:44;22.60;75.20
21582;DHT22;10952;50.836;4.348;2023-06-14T06:43:10;22.50;75.00
21582;DHT22;10952;50.836;4.348;2023-06-14T06:45:39;22.60;75.00
21582;DHT22;10952;50.836;4.348;2023-06-14T06:48:05;22.60;75.00
21582;DHT22;10952;50.836;4.348;2023-06-14T06:50:32;22.70;74.80
21582;DHT22;10952;50.836;4.348;2023-06-14T06:52:58;22.70;74.70
21582;DHT22;10952;50.836;4.348;2023-06-14T06:55:23;22.90;74.50
21582;DHT22;10952;50.836;4.348;2023-06-14T06:57:49;22.90;74.10
21582;DHT22;10952;50.836;4.348;2023-06-14T07:00:15;23.00;74.10
21582;DHT22;10952;50.836;4.348;2023-06-14T07:02:43;23.10;73.90
21582;DHT22;10952;50.836;4.348;2023-06-14T07:05:08;23.10;73.30
21582;DHT22;10952;50.836;4.348;2023-06-14T07:07:34;23.20;73.60
21582;DHT22;10952;50.836;4.348;2023-06-14T07:10:00;23.20;73.30
21582;DHT22;10952;50.836;4.348;2023-06-14T07:12:26;23.30;72.60
21582;DHT22;10952;50.836;4.348;2023-06-14T07:14:51;23.30;73.00
21582;DHT22;10952;50.836;4.348;2023-06-14T07:17:17;23.50;73.00
21582;DHT22;10952;50.836;4.348;2023-06-14T07:19:43;23.60;72.40
21582;DHT22;10952;50.836;4.348;2023-06-14T07:22:08;23.70;71.80
21582;DHT22;10952;50.836;4.348;2023-06-14T07:24:34;23.70;71.30
21582;DHT22;10952;50.836;4.348;2023-06-14T07:27:02;23.70;71.20
21582;DHT22;10952;50.836;4.348;2023-06-14T07:29:28;23.80;71.20
21582;DHT22;10952;50.836;4.348;2023-06-14T07:31:54;23.90;70.80
21582;DHT22;10952;50.836;4.348;2023-06-14T07:34:20;24.00;71.00
21582;DHT22;10952;50.836;4.348;2023-06-14T07:36:46;24.10;71.00
21582;DHT22;10952;50.836;4.348;2023-06-14T07:39:11;24.20;70.80
21582;DHT22;10952;50.836;4.348;2023-06-14T07:41:37;24.30;70.50
21582;DHT22;10952;50.836;4.348;2023-06-14T07:44:03;24.20;70.60
21582;DHT22;10952;50.836;4.348;2023-06-14T07:46:28;24.20;70.80
21582;DHT22;10952;50.836;4.348;2023-06-14T07:48:54;24.30;70.80
21582;DHT22;10952;50.836;4.348;2023-06-14T07:51:20;24.40;70.10
21582;DHT22;10952;50.836;4.348;2023-06-14T07:53:47;24.40;69.90
21582;DHT22;10952;50.836;4.348;2023-06-14T07:56:13;24.60;69.80
21582;DHT22;10952;50.836;4.348;2023-06-14T07:58:38;24.70;69.50
21582;DHT22;10952;50.836;4.348;2023-06-14T08:01:04;24.80;69.70
21582;DHT22;10952;50.836;4.348;2023-06-14T08:03:32;24.90;69.90
21582;DHT22;10952;50.836;4.348;2023-06-14T08:05:57;24.90;68.70
21582;DHT22;10952;50.836;4.348;2023-06-14T08:08:23;24.90;68.30
21582;DHT22;10952;50.836;4.348;2023-06-14T08:10:49;24.90;69.20
21582;DHT22;10952;50.836;4.348;2023-06-14T08:13:15;25.10;69.30
21582;DHT22;10952;50.836;4.348;2023-06-14T08:15:40;25.10;69.70
21582;DHT22;10952;50.836;4.348;2023-06-14T08:18:06;25.20;69.50
21582;DHT22;10952;50.836;4.348;2023-06-14T08:20:31;25.30;69.60
21582;DHT22;10952;50.836;4.348;2023-06-14T08:22:58;25.30;69.50
21582;DHT22;10952;50.836;4.348;2023-06-14T08:25:24;25.50;68.40
21582;DHT22;10952;50.836;4.348;2023-06-14T08:27:50;25.60;68.30
21582;DHT22;10952;50.836;4.348;2023-06-14T08:30:15;25.70;68.00
21582;DHT22;10952;50.836;4.348;2023-06-14T08:32:43;25.60;67.00
21582;DHT22;10952;50.836;4.348;2023-06-14T08:35:08;25.60;67.30
21582;DHT22;10952;50.836;4.348;2023-06-14T08:37:38;25.70;67.40
21582;DHT22;10952;50.836;4.348;2023-06-14T08:40:12;25.60;65.60
21582;DHT22;10952;50.836;4.348;2023-06-14T08:42:42;25.60;66.60
21582;DHT22;10952;50.836;4.348;2023-06-14T08:45:08;25.60;67.00
21582;DHT22;10952;50.836;4.348;2023-06-14T08:47:34;25.80;67.20
21582;DHT22;10952;50.836;4.348;2023-06-14T08:50:03;25.90;67.50
21582;DHT22;10952;50.836;4.348;2023-06-14T08:52:33;26.00;67.40
21582;DHT22;10952;50.836;4.348;2023-06-14T08:55:06;26.10;67.50
21582;DHT22;10952;50.836;4.348;2023-06-14T08:57:33;26.30;66.50
21582;DHT22;10952;50.836;4.348;2023-06-14T09:00:03;26.40;66.10
21582;DHT22;10952;50.836;4.348;2023-06-14T09:02:35;26.30;65.20
21582;DHT22;10952;50.836;4.348;2023-06-14T09:05:01;26.30;65.80
21582;DHT22;10952;50.836;4.348;2023-06-14T09:07:26;26.30;66.30
21582;DHT22;10952;50.836;4.348;2023-06-14T09:10:12;26.20;66.80
21582;DHT22;10952;50.836;4.348;2023-06-14T09:12:38;26.30;67.70
21582;DHT22;10952;50.836;4.348;2023-06-14T09:15:08;26.30;67.80
21582;DHT22;10952;50.836;4.348;2023-06-14T09:17:38;26.40;68.10
21582;DHT22;10952;50.836;4.348;2023-06-14T09:20:04;26.60;69.00
21582;DHT22;10952;50.836;4.348;2023-06-14T09:22:39;26.60;68.60
21582;DHT22;10952;50.836;4.348;2023-06-14T09:25:05;26.60;68.80
21582;DHT22;10952;50.836;4.348;2023-06-14T09:27:32;26.90;68.00
21582;DHT22;10952;50.836;4.348;2023-06-14T09:29:58;27.60;66.10
21582;DHT22;10952;50.836;4.348;2023-06-14T09:32:25;29.30;63.40
21582;DHT22;10952;50.836;4.348;2023-06-14T09:34:50;31.30;58.60
21582;DHT22;10952;50.836;4.348;2023-06-14T09:37:29;33.00;56.60
21582;DHT22;10952;50.836;4.348;2023-06-14T09:39:55;33.80;54.80
21582;DHT22;10952;50.836;4.348;2023-06-14T09:42:21;34.20;54.80
21582;DHT22;10952;50.836;4.348;2023-06-14T09:44:48;35.70;53.80
21582;DHT22;10952;50.836;4.348;2023-06-14T09:47:15;35.80;52.70
21582;DHT22;10952;50.836;4.348;2023-06-14T09:49:42;36.30;52.00
21582;DHT22;10952;50.836;4.348;2023-06-14T09:52:18;37.40;51.00
21582;DHT22;10952;50.836;4.348;2023-06-14T09:54:46;37.20;51.00
21582;DHT22;10952;50.836;4.348;2023-06-14T09:57:14;37.90;49.70
21582;DHT22;10952;50.836;4.348;2023-06-14T09:59:45;37.00;50.30
21582;DHT22;10952;50.836;4.348;2023-06-14T10:02:22;37.70;50.40
21582;DHT22;10952;50.836;4.348;2023-06-14T10:05:11;38.50;49.30
21582;DHT22;10952;50.836;4.348;2023-06-14T10:10:07;39.20;48.30
21582;DHT22;10952;50.836;4.348;2023-06-14T10:12:33;39.50;48.00
21582;DHT22;10952;50.836;4.348;2023-06-14T10:14:59;39.60;47.20
21582;DHT22;10952;50.836;4.348;2023-06-14T10:17:46;37.80;47.50
21582;DHT22;10952;50.836;4.348;2023-06-14T10:23:02;36.30;48.30
21582;DHT22;10952;50.836;4.348;2023-06-14T10:25:30;37.10;48.50
21582;DHT22;10952;50.836;4.348;2023-06-14T10:28:22;37.80;48.60
21582;DHT22;10952;50.836;4.348;2023-06-14T10:31:15;39.30;46.60
21582;DHT22;10952;50.836;4.348;2023-06-14T10:41:35;39.30;46.90
21582;DHT22;10952;50.836;4.348;2023-06-14T10:46:54;40.80;45.40
21582;DHT22;10952;50.836;4.348;2023-06-14T10:49:39;40.70;44.60
21582;DHT22;10952;50.836;4.348;2023-06-14T10:52:08;41.60;44.40
21582;DHT22;10952;50.836;4.348;2023-06-14T10:54:37;41.80;44.20
21582;DHT22;10952;50.836;4.348;2023-06-14T10:57:06;42.40;43.90
21582;DHT22;10952;50.836;4.348;2023-06-14T10:59:33;42.50;43.20
21582;DHT22;10952;50.836;4.348;2023-06-14T11:04:56;42.60;43.60
21582;DHT22;10952;50.836;4.348;2023-06-14T11:10:39;41.80;43.10
21582;DHT22;10952;50.836;4.348;2023-06-14T11:13:08;40.80;44.60
21582;DHT22;10952;50.836;4.348;2023-06-14T11:15:36;38.90;45.30
21582;DHT22;10952;50.836;4.348;2023-06-14T11:18:07;39.10;45.60
21582;DHT22;10952;50.836;4.348;2023-06-14T11:20:35;40.00;44.80
21582;DHT22;10952;50.836;4.348;2023-06-14T11:23:02;40.30;44.40
21582;DHT22;10952;50.836;4.348;2023-06-14T11:25:28;41.10;43.80
21582;DHT22;10952;50.836;4.348;2023-06-14T11:27:54;40.50;44.00
21582;DHT22;10952;50.836;4.348;2023-06-14T11:30:21;40.10;44.10
21582;DHT22;10952;50.836;4.348;2023-06-14T11:32:48;40.50;44.10
21582;DHT22;10952;50.836;4.348;2023-06-14T11:35:16;40.10;44.20
21582;DHT22;10952;50.836;4.348;2023-06-14T11:37:43;39.70;44.40
21582;DHT22;10952;50.836;4.348;2023-06-14T11:40:10;40.00;44.20
21582;DHT22;10952;50.836;4.348;2023-06-14T11:42:38;40.40;44.00
21582;DHT22;10952;50.836;4.348;2023-06-14T11:45:07;39.40;44.40
21582;DHT22;10952;50.836;4.348;2023-06-14T11:47:34;39.50;44.70
21582;DHT22;10952;50.836;4.348;2023-06-14T11:50:01;39.00;45.00
21582;DHT22;10952;50.836;4.348;2023-06-14T11:52:27;38.00;45.40
21582;DHT22;10952;50.836;4.348;2023-06-14T11:54:54;38.60;45.40
21582;DHT22;10952;50.836;4.348;2023-06-14T11:57:19;38.80;45.20
21582;DHT22;10952;50.836;4.348;2023-06-14T11:59:45;38.40;45.20
21582;DHT22;10952;50.836;4.348;2023-06-14T12:02:19;38.80;44.90
21582;DHT22;10952;50.836;4.348;2023-06-14T12:04:52;39.20;44.90
21582;DHT22;10952;50.836;4.348;2023-06-14T12:07:18;38.60;44.70
21582;DHT22;10952;50.836;4.348;2023-06-14T12:12:24;38.30;45.40
21582;DHT22;10952;50.836;4.348;2023-06-14T12:14:56;38.50;45.00
21582;DHT22;10952;50.836;4.348;2023-06-14T12:17:22;38.60;45.30
21582;DHT22;10952;50.836;4.348;2023-06-14T12:19:49;39.00;44.60
21582;DHT22;10952;50.836;4.348;2023-06-14T12:22:16;38.50;44.30
21582;DHT22;10952;50.836;4.348;2023-06-14T12:24:45;38.30;44.60
21582;DHT22;10952;50.836;4.348;2023-06-14T12:27:12;36.70;45.90
21582;DHT22;10952;50.836;4.348;2023-06-14T12:29:44;36.90;46.00
21582;DHT22;10952;50.836;4.348;2023-06-14T12:32:11;36.70;45.20
21582;DHT22;10952;50.836;4.348;2023-06-14T12:34:37;36.90;45.20
21582;DHT22;10952;50.836;4.348;2023-06-14T12:37:03;36.80;45.10
21582;DHT22;10952;50.836;4.348;2023-06-14T12:39:31;36.40;45.20
21582;DHT22;10952;50.836;4.348;2023-06-14T12:41:58;35.70;45.70
21582;DHT22;10952;50.836;4.348;2023-06-14T12:44:24;34.40;47.30
21582;DHT22;10952;50.836;4.348;2023-06-14T12:46:50;33.60;48.40
21582;DHT22;10952;50.836;4.348;2023-06-14T12:49:18;33.10;49.00
21582;DHT22;10952;50.836;4.348;2023-06-14T12:51:45;32.60;49.60
21582;DHT22;10952;50.836;4.348;2023-06-14T12:54:11;32.20;49.80
21582;DHT22;10952;50.836;4.348;2023-06-14T12:56:37;31.90;49.80
21582;DHT22;10952;50.836;4.348;2023-06-14T12:59:03;32.00;50.30
21582;DHT22;10952;50.836;4.348;2023-06-14T13:01:28;32.00;50.20
21582;DHT22;10952;50.836;4.348;2023-06-14T13:03:54;32.00;49.80
21582;DHT22;10952;50.836;4.348;2023-06-14T13:06:23;31.30;50.50
21582;DHT22;10952;50.836;4.348;2023-06-14T13:08:49;31.10;51.10
21582;DHT22;10952;50.836;4.348;2023-06-14T13:11:15;30.90;51.60
21582;DHT22;10952;50.836;4.348;2023-06-14T13:13:41;31.00;51.40
21582;DHT22;10952;50.836;4.348;2023-06-14T13:16:07;31.10;51.20
21582;DHT22;10952;50.836;4.348;2023-06-14T13:18:32;31.00;51.00
21582;DHT22;10952;50.836;4.348;2023-06-14T13:20:58;31.00;51.20
21582;DHT22;10952;50.836;4.348;2023-06-14T13:23:24;30.90;50.90
21582;DHT22;10952;50.836;4.348;2023-06-14T13:25:49;31.10;51.30
21582;DHT22;10952;50.836;4.348;2023-06-14T13:28:16;30.90;50.90
21582;DHT22;10952;50.836;4.348;2023-06-14T13:30:42;30.80;51.20
21582;DHT22;10952;50.836;4.348;2023-06-14T13:33:08;30.90;51.50
21582;DHT22;10952;50.836;4.348;2023-06-14T13:35:33;30.80;52.20
21582;DHT22;10952;50.836;4.348;2023-06-14T13:38:00;30.70;51.90
21582;DHT22;10952;50.836;4.348;2023-06-14T13:40:26;30.70;51.60
21582;DHT22;10952;50.836;4.348;2023-06-14T13:42:51;30.80;51.70
21582;DHT22;10952;50.836;4.348;2023-06-14T13:45:17;30.50;51.60
21582;DHT22;10952;50.836;4.348;2023-06-14T13:47:43;30.20;52.30
21582;DHT22;10952;50.836;4.348;2023-06-14T13:50:09;30.40;52.10
21582;DHT22;10952;50.836;4.348;2023-06-14T13:52:34;30.60;50.80
21582;DHT22;10952;50.836;4.348;2023-06-14T13:55:00;30.80;50.60
21582;DHT22;10952;50.836;4.348;2023-06-14T13:57:27;30.80;50.30
21582;DHT22;10952;50.836;4.348;2023-06-14T13:59:53;30.90;50.00
21582;DHT22;10952;50.836;4.348;2023-06-14T14:02:20;30.90;50.00
21582;DHT22;10952;50.836;4.348;2023-06-14T14:04:46;30.90;49.80
21582;DHT22;10952;50.836;4.348;2023-06-14T14:07:18;31.00;50.30
21582;DHT22;10952;50.836;4.348;2023-06-14T14:09:44;30.80;49.90
21582;DHT22;10952;50.836;4.348;2023-06-14T14:12:10;30.90;49.70
21582;DHT22;10952;50.836;4.348;2023-06-14T14:14:36;30.60;48.90
21582;DHT22;10952;50.836;4.348;2023-06-14T14:17:02;30.60;50.50
21582;DHT22;10952;50.836;4.348;2023-06-14T14:19:28;30.30;50.20
21582;DHT22;10952;50.836;4.348;2023-06-14T14:21:54;30.30;50.40
21582;DHT22;10952;50.836;4.348;2023-06-14T14:24:19;30.10;50.60
21582;DHT22;10952;50.836;4.348;2023-06-14T14:26:45;30.30;50.90
21582;DHT22;10952;50.836;4.348;2023-06-14T14:29:14;30.50;50.30
21582;DHT22;10952;50.836;4.348;2023-06-14T14:31:40;30.60;50.20
21582;DHT22;10952;50.836;4.348;2023-06-14T14:34:05;30.60;50.00
21582;DHT22;10952;50.836;4.348;2023-06-14T14:36:31;30.90;49.80
21582;DHT22;10952;50.836;4.348;2023-06-14T14:38:58;30.80;49.20
21582;DHT22;10952;50.836;4.348;2023-06-14T14:41:24;31.00;49.40
21582;DHT22;10952;50.836;4.348;2023-06-14T14:43:50;30.70;49.10
21582;DHT22;10952;50.836;4.348;2023-06-14T14:46:15;30.60;49.60
21582;DHT22;10952;50.836;4.348;2023-06-14T14:48:42;30.50;49.50
21582;DHT22;10952;50.836;4.348;2023-06-14T14:51:07;30.60;49.70
21582;DHT22;10952;50.836;4.348;2023-06-14T14:53:33;30.60;49.30
21582;DHT22;10952;50.836;4.348;2023-06-14T14:56:00;30.70;49.60
21582;DHT22;10952;50.836;4.348;2023-06-14T14:58:25;30.90;49.20
21582;DHT22;10952;50.836;4.348;2023-06-14T15:00:51;30.80;49.20
21582;DHT22;10952;50.836;4.348;2023-06-14T15:03:17;30.70;49.30
21582;DHT22;10952;50.836;4.348;2023-06-14T15:05:42;30.90;49.30
21582;DHT22;10952;50.836;4.348;2023-06-14T15:08:08;30.90;49.00
21582;DHT22;10952;50.836;4.348;2023-06-14T15:10:40;31.00;48.60
21582;DHT22;10952;50.836;4.348;2023-06-14T15:13:08;31.00;48.80
21582;DHT22;10952;50.836;4.348;2023-06-14T15:15:35;31.10;48.50
21582;DHT22;10952;50.836;4.348;2023-06-14T15:18:01;31.00;48.60
21582;DHT22;10952;50.836;4.348;2023-06-14T15:20:26;30.80;48.90
21582;DHT22;10952;50.836;4.348;2023-06-14T15:22:53;30.70;48.90
21582;DHT22;10952;50.836;4.348;2023-06-14T15:25:21;30.80;49.20
21582;DHT22;10952;50.836;4.348;2023-06-14T15:27:46;30.80;49.10
21582;DHT22;10952;50.836;4.348;2023-06-14T15:30:12;30.70;49.00
21582;DHT22;10952;50.836;4.348;2023-06-14T15:32:38;31.00;49.10
21582;DHT22;10952;50.836;4.348;2023-06-14T15:35:04;31.10;49.30
21582;DHT22;10952;50.836;4.348;2023-06-14T15:37:30;31.40;49.00
21582;DHT22;10952;50.836;4.348;2023-06-14T15:39:55;31.10;49.30
21582;DHT22;10952;50.836;4.348;2023-06-14T15:42:21;30.70;49.70
21582;DHT22;10952;50.836;4.348;2023-06-14T15:44:47;30.60;49.70
21582;DHT22;10952;50.836;4.348;2023-06-14T15:47:13;30.70;50.30
21582;DHT22;10952;50.836;4.348;2023-06-14T15:49:38;31.10;50.10
21582;DHT22;10952;50.836;4.348;2023-06-14T15:52:05;31.30;49.60
21582;DHT22;10952;50.836;4.348;2023-06-14T15:54:31;31.20;49.60
21582;DHT22;10952;50.836;4.348;2023-06-14T15:57:00;31.10;49.60